EmailTwitter


Observations de surface / États-Unis / KJFK (74486)

Régions: Québec | Canada | États-Unis | Europe | France | UK | Ailleurs
Station
Affichage
Infos & localisation pour KJFK (74486) | Aide pour décoder les METARs

Observations prises le 2019-03-25 à 00H51 UTC à NEW YORK/JF KENN, NY (KJFK)

Etat du ciel: partiellement nuageux.

Température: 11.0 Celsius

Point de rosée: -1.0 Celsius

Humidité relative: 43%

Facteur vent: 9.

Vents: Sud-ouest à 17 km/h ou 9 noeuds.

Pression au niveau moyen de la mer: 101.76 kilopascals.

Calage altimétrique: 101.76 kilopascals ou 30.05 pouces de mercure.

Visibilité horizontale: 10.00 milles terrestres ou 16.00 kilomètres.

Hauteur du plafond: 5486 mètres ( 18000 pieds ).

Observation METAR:

KJFK 250051Z 23009KT 10SM BKN180 BKN250 11/M01 A3005 RMK AO2 SLP176 T01111006=